createdAt,value
2023-03-23T15:58:23.165Z,96.40
2023-03-23T16:00:55.375Z,95.90
2023-03-23T16:03:46.182Z,95.70
2023-03-23T16:06:24.280Z,95.70
2023-03-23T16:09:00.019Z,95.80
2023-03-23T16:11:33.186Z,96.00
2023-03-23T16:14:04.029Z,95.80
2023-03-23T16:16:43.735Z,95.90
2023-03-23T16:19:18.474Z,95.90
2023-03-23T16:21:49.262Z,95.60
2023-03-23T16:24:19.611Z,95.60
2023-03-23T16:26:49.910Z,95.60
2023-03-23T16:29:37.060Z,95.40
2023-03-23T16:32:10.835Z,95.80
2023-03-23T16:34:41.181Z,95.80
2023-03-23T16:37:14.231Z,95.80
2023-03-23T16:39:45.120Z,96.20
2023-03-23T16:42:15.603Z,96.00
2023-03-23T16:44:46.069Z,96.90
2023-03-23T16:47:17.657Z,96.20
2023-03-23T16:49:48.284Z,96.10
2023-03-23T16:52:18.706Z,95.90
2023-03-23T16:54:50.563Z,95.70
2023-03-23T16:57:21.275Z,96.00
2023-03-23T16:59:51.486Z,96.20
2023-03-23T17:02:21.983Z,96.50
2023-03-23T17:04:52.488Z,96.40
2023-03-23T17:07:22.789Z,96.40
2023-03-23T17:09:53.428Z,96.10
2023-03-23T17:12:24.475Z,95.90
2023-03-23T17:14:54.715Z,95.80
2023-03-23T17:17:27.431Z,96.10
2023-03-23T17:19:58.669Z,95.80
2023-03-23T17:22:30.094Z,96.10
2023-03-23T17:25:01.126Z,95.90
2023-03-23T17:27:32.043Z,95.90
2023-03-23T17:30:03.174Z,95.70
2023-03-23T17:32:33.964Z,95.70
2023-03-23T17:35:07.906Z,95.40
2023-03-23T17:37:39.583Z,95.50
2023-03-23T17:40:11.925Z,95.30
2023-03-23T17:42:43.276Z,95.10
2023-03-23T17:45:13.880Z,95.30
2023-03-23T17:47:44.221Z,95.50
2023-03-23T17:50:15.023Z,95.30
2023-03-23T17:52:45.847Z,95.30
2023-03-23T17:55:17.454Z,95.70
2023-03-23T17:57:48.375Z,95.70
2023-03-23T18:00:20.818Z,95.90
2023-03-23T18:02:51.815Z,96.00
2023-03-23T18:05:22.544Z,96.00
2023-03-23T18:07:53.526Z,96.00
2023-03-23T18:10:23.908Z,96.10
2023-03-23T18:12:54.550Z,96.20
2023-03-23T18:15:28.291Z,96.20
2023-03-23T18:17:59.803Z,96.00
2023-03-23T18:20:30.912Z,95.90
2023-03-23T18:23:03.211Z,95.70
2023-03-23T18:25:35.341Z,96.10
2023-03-23T18:28:08.295Z,95.50
2023-03-23T18:30:38.593Z,95.60
2023-03-23T18:33:09.489Z,95.60
2023-03-23T18:35:41.956Z,95.70
2023-03-23T18:38:14.569Z,95.70
2023-03-23T18:40:50.134Z,95.80
2023-03-23T18:43:21.431Z,95.70
2023-03-23T18:45:53.903Z,95.90
2023-03-23T18:48:26.186Z,94.80
2023-03-23T18:50:59.939Z,94.90
2023-03-23T18:53:31.373Z,95.30
2023-03-23T18:56:17.668Z,95.70
2023-03-23T18:58:48.695Z,95.40
2023-03-23T19:01:20.546Z,95.90
2023-03-23T19:03:51.931Z,95.80
2023-03-23T19:06:28.199Z,95.90
2023-03-23T19:09:02.315Z,95.90
2023-03-23T19:11:34.665Z,96.10
2023-03-23T19:14:06.587Z,96.50
2023-03-23T19:16:38.706Z,97.00
2023-03-23T19:19:14.260Z,96.50
2023-03-23T19:21:46.976Z,96.80
2023-03-23T19:24:17.885Z,95.80
2023-03-23T19:26:49.527Z,96.50
2023-03-23T19:29:26.571Z,96.10
2023-03-23T19:31:58.999Z,96.20
2023-03-23T19:34:31.539Z,97.00
2023-03-23T19:37:05.981Z,96.70
2023-03-23T19:39:39.945Z,96.70
2023-03-23T19:42:11.849Z,96.70
2023-03-23T19:44:43.907Z,95.60
2023-03-23T19:47:14.687Z,96.30
2023-03-23T19:49:45.098Z,96.60
2023-03-23T19:52:17.699Z,96.30
2023-03-23T19:54:49.203Z,95.40
2023-03-23T19:57:20.068Z,95.30
2023-03-23T19:59:50.485Z,95.80
2023-03-23T20:02:20.916Z,95.80
2023-03-23T20:04:51.741Z,95.70
2023-03-23T20:07:25.552Z,95.90
2023-03-23T20:09:57.510Z,95.70
2023-03-23T20:12:28.522Z,95.80
2023-03-23T20:15:00.629Z,95.70
2023-03-23T20:17:31.103Z,95.60
2023-03-23T20:20:01.782Z,95.50
2023-03-23T20:22:32.630Z,95.80
2023-03-23T20:25:03.651Z,96.00
2023-03-23T20:27:33.939Z,95.50
2023-03-23T20:30:05.008Z,95.40
2023-03-23T20:32:35.959Z,95.50
2023-03-23T20:35:12.378Z,95.40
2023-03-23T20:37:43.452Z,95.80
2023-03-23T20:40:16.695Z,96.20
2023-03-23T20:42:47.200Z,95.70
2023-03-23T20:45:18.126Z,96.00
2023-03-23T20:47:48.779Z,96.20
2023-03-23T20:50:19.193Z,96.90
2023-03-23T20:52:50.369Z,96.20
2023-03-23T20:55:20.977Z,97.40
2023-03-23T20:57:51.992Z,97.30
2023-03-23T21:00:22.368Z,97.00
2023-03-23T21:02:55.701Z,96.70
2023-03-23T21:05:26.479Z,97.10
2023-03-23T21:08:00.720Z,97.20
2023-03-23T21:10:32.319Z,97.30
2023-03-23T21:13:02.797Z,98.00
2023-03-23T21:15:34.152Z,98.50
2023-03-23T21:18:04.753Z,98.00
2023-03-23T21:20:38.647Z,97.40
2023-03-23T21:23:09.878Z,97.80
2023-03-23T21:25:44.165Z,97.80
2023-03-23T21:28:15.499Z,97.40
2023-03-23T21:30:47.416Z,97.60
2023-03-23T21:33:18.778Z,97.30
2023-03-23T21:35:50.462Z,97.30
2023-03-23T21:38:32.380Z,97.00
2023-03-23T21:41:11.585Z,97.00
2023-03-23T21:43:43.691Z,96.90
2023-03-23T21:46:20.056Z,96.60
2023-03-23T21:48:55.678Z,96.40
2023-03-23T21:51:32.817Z,96.70
2023-03-23T21:54:03.802Z,96.70
2023-03-23T21:56:36.151Z,96.30
2023-03-23T21:59:09.436Z,96.20
2023-03-23T22:01:40.383Z,96.20
2023-03-23T22:04:12.534Z,96.20
2023-03-23T22:06:44.495Z,95.90
2023-03-23T22:09:16.335Z,95.00
2023-03-23T22:11:47.043Z,94.60
2023-03-23T22:14:19.067Z,94.20
2023-03-23T22:16:49.854Z,94.10
2023-03-23T22:19:20.817Z,94.20
2023-03-23T22:21:51.541Z,94.50
2023-03-23T22:24:22.278Z,94.00
2023-03-23T22:26:55.127Z,94.00
2023-03-23T22:29:27.509Z,93.80
2023-03-23T22:31:58.653Z,93.10
2023-03-23T22:34:29.551Z,92.90
2023-03-23T22:37:00.225Z,92.90
2023-03-23T22:39:31.048Z,93.00
2023-03-23T22:42:02.108Z,92.80
2023-03-23T22:44:33.076Z,92.60
2023-03-23T22:47:04.008Z,92.20
2023-03-23T22:49:35.160Z,92.30
2023-03-23T22:52:07.069Z,92.40
2023-03-23T22:54:37.872Z,92.30
2023-03-23T22:57:09.850Z,92.40
2023-03-23T22:59:40.849Z,92.00
2023-03-23T23:02:13.583Z,91.80
2023-03-23T23:04:45.105Z,91.90
2023-03-23T23:07:17.548Z,91.80
2023-03-23T23:09:48.641Z,91.80
2023-03-23T23:12:22.348Z,91.50
2023-03-23T23:14:53.356Z,90.70
2023-03-23T23:17:25.167Z,90.90
2023-03-23T23:19:57.237Z,91.10
2023-03-23T23:22:30.251Z,90.70
2023-03-23T23:25:00.928Z,90.60
2023-03-23T23:27:32.804Z,90.50
2023-03-23T23:30:03.905Z,90.20
2023-03-23T23:32:35.807Z,90.10
2023-03-23T23:35:09.359Z,89.70
2023-03-23T23:37:40.355Z,89.60
2023-03-23T23:40:11.418Z,88.80
2023-03-23T23:42:41.937Z,88.00
2023-03-23T23:45:12.684Z,88.10
2023-03-23T23:47:45.514Z,87.40
2023-03-23T23:50:17.632Z,87.20
2023-03-23T23:52:52.247Z,86.90
2023-03-23T23:55:23.786Z,86.70
2023-03-23T23:57:55.063Z,83.60
